Columbus, IN

8:13 AM EDT on August 27, 2016 (GMT -0400)
Jackson St. | | Change Station

Elev 627 ft 39.21 °N, 85.92 °W | Updated 8 seconds ago

Partly Cloudy
Partly Cloudy
73.4 °F
Feels Like 70 °F
N
0.0
Wind Variable Wind from NE
Gusts 0.0 mph

Today
High -- | Low -- °F
--% Chance of Precip.
Yesterday
High -- | Low -- °F
Precip. -- in
Pressure 30.08 in
Visibility 7.0 miles
Clouds Few 25000 ft
Heat Index 70 °F
Dew Point 71 °F
Humidity 93%
Rainfall 0.00 in
Snow Depth Not available.
7:08 AM 8:21 PM
Waning Crescent, 25% visible
METAR KBAK 271047Z 00000KT 7SM FEW250 20/20 A3008
Pressure 30.08 in
Visibility 7.0 miles
Clouds Few 25000 ft
Heat Index 70 °F
Dew Point 71 °F
Humidity 93%
Rainfall 0.00 in
Snow Depth Not available.
7:08 AM 8:21 PM
Waning Crescent, 25% visible
METAR KBAK 271047Z 00000KT 7SM FEW250 20/20 A3008

10-Day Weather Forecast

Almanac

Astronomy

Aug. 27, 2016 Rise Set
Actual Time
Civil Twilight
Nautical Twilight
Astronomical Twilight
Moon
Length of Visible Light
Length of Day
Tomorrow will be .
, % of the Moon is Illuminated

Today's Extremes

State Highs State Lows

Community

WunderPhotos

Upload Photos

1,935,325 photos uploaded!

WunderBlog® & News

Nearby

Air Quality

  Air Quality AQ Index Pollutant
Not available.

Snow Depth

Station Depth Elevation

Earthquake Activity

City Distance Mag. Time & Date
Minimum magnitude displayed is 2.5.

Coastal Water Temperatures

Place Temperature

Stations

Nearby Weather Stations

Station Location Temp. Windchill Dew Point Humidity Wind Precip. Elev Updated Type
                   

Watches & Warnings

There are currently no watches in effect.